createdAt,value
2018-08-23T00:00:45.935Z,24.80
2018-08-23T00:03:20.600Z,24.57
2018-08-23T00:05:52.298Z,22.57
2018-08-23T00:08:22.744Z,22.60
2018-08-23T00:10:53.206Z,24.40
2018-08-23T00:13:24.071Z,24.80
2018-08-23T00:15:53.622Z,23.07
2018-08-23T00:18:23.144Z,24.00
2018-08-23T00:20:52.601Z,23.70
2018-08-23T00:23:22.172Z,24.43
2018-08-23T00:25:51.466Z,25.40
2018-08-23T00:28:20.903Z,24.93
2018-08-23T00:30:51.059Z,26.50
2018-08-23T00:33:20.386Z,25.57
2018-08-23T00:35:49.690Z,25.37
2018-08-23T00:38:19.140Z,25.27
2018-08-23T00:40:48.878Z,26.03
2018-08-23T00:43:18.367Z,25.87
2018-08-23T00:45:47.578Z,26.37
2018-08-23T00:48:16.788Z,26.07
2018-08-23T00:50:54.706Z,25.67
2018-08-23T00:53:24.215Z,25.13
2018-08-23T00:56:10.683Z,28.43
2018-08-23T00:58:41.710Z,26.50
2018-08-23T01:01:12.878Z,25.17
2018-08-23T01:03:42.918Z,26.10
2018-08-23T01:06:13.003Z,25.87
2018-08-23T01:08:42.287Z,25.70
2018-08-23T01:11:12.031Z,25.20
2018-08-23T01:13:41.894Z,23.40
2018-08-23T01:16:13.498Z,25.07
2018-08-23T01:18:43.311Z,25.67
2018-08-23T01:21:12.878Z,26.47
2018-08-23T01:23:43.543Z,26.23
2018-08-23T01:26:12.948Z,25.57
2018-08-23T01:28:42.434Z,25.27
2018-08-23T01:31:25.342Z,24.53
2018-08-23T01:33:57.360Z,23.50
2018-08-23T01:36:31.881Z,24.27
2018-08-23T01:39:05.408Z,23.97
2018-08-23T01:41:34.921Z,25.20
2018-08-23T01:44:04.459Z,25.73
2018-08-23T01:46:39.243Z,25.13
2018-08-23T01:49:09.712Z,24.97
2018-08-23T01:51:39.041Z,25.47
2018-08-23T01:54:08.596Z,29.27
2018-08-23T01:56:38.306Z,27.30
2018-08-23T01:59:07.855Z,26.47
2018-08-23T02:01:37.139Z,27.70
2018-08-23T02:04:07.071Z,27.57
2018-08-23T02:06:36.944Z,26.07
2018-08-23T02:09:08.203Z,28.13
2018-08-23T02:11:37.970Z,30.10
2018-08-23T02:14:07.500Z,25.93
2018-08-23T02:16:48.247Z,27.17
2018-08-23T02:19:17.572Z,27.53
2018-08-23T02:21:47.091Z,27.03
2018-08-23T02:24:20.774Z,27.53
2018-08-23T02:26:50.190Z,26.50
2018-08-23T02:29:29.414Z,24.73
2018-08-23T02:31:58.816Z,24.53
2018-08-23T02:34:32.449Z,23.97
2018-08-23T02:37:01.779Z,25.00
2018-08-23T02:39:31.215Z,25.97
2018-08-23T02:42:00.932Z,24.80
2018-08-23T02:44:30.215Z,24.23
2018-08-23T02:47:00.393Z,25.93
2018-08-23T02:49:30.183Z,26.37
2018-08-23T02:51:59.827Z,26.13
2018-08-23T02:54:29.270Z,26.13
2018-08-23T02:56:59.826Z,28.10
2018-08-23T02:59:30.170Z,26.03
2018-08-23T03:01:59.442Z,27.27
2018-08-23T03:04:29.627Z,28.30
2018-08-23T03:07:04.959Z,26.90
2018-08-23T03:09:36.583Z,28.43
2018-08-23T03:12:11.498Z,26.17
2018-08-23T03:14:41.604Z,26.80
2018-08-23T03:17:24.478Z,26.77
2018-08-23T03:20:02.613Z,29.03
2018-08-23T03:22:33.216Z,29.83
2018-08-23T03:25:04.331Z,29.83
2018-08-23T03:27:33.824Z,27.23
2018-08-23T03:30:04.410Z,30.67
2018-08-23T03:32:33.648Z,29.03
2018-08-23T03:35:03.178Z,30.70
2018-08-23T03:37:32.416Z,28.23
2018-08-23T03:40:01.734Z,28.37
2018-08-23T03:42:31.222Z,30.53
2018-08-23T03:45:01.754Z,30.70
2018-08-23T03:47:38.102Z,31.73
2018-08-23T03:50:09.168Z,32.63
2018-08-23T03:52:39.383Z,30.57
2018-08-23T03:55:10.775Z,32.83
2018-08-23T03:57:45.321Z,31.57
2018-08-23T04:00:14.789Z,33.10
2018-08-23T04:02:44.262Z,32.67
2018-08-23T04:05:18.806Z,33.23
2018-08-23T04:07:48.207Z,31.63
2018-08-23T04:10:17.711Z,31.67
2018-08-23T04:12:47.195Z,32.70
2018-08-23T04:15:24.159Z,32.70
2018-08-23T04:17:53.644Z,32.80
2018-08-23T04:20:23.780Z,31.80
2018-08-23T04:22:53.695Z,31.20
2018-08-23T04:25:22.967Z,34.17
2018-08-23T04:27:52.644Z,31.93
2018-08-23T04:30:22.163Z,32.40
2018-08-23T04:32:52.134Z,32.47
2018-08-23T04:35:25.008Z,36.20
2018-08-23T04:37:54.517Z,32.73
2018-08-23T04:40:24.337Z,34.77
2018-08-23T04:42:54.290Z,34.07
2018-08-23T04:45:24.970Z,34.13
2018-08-23T04:48:06.143Z,33.60
2018-08-23T04:50:36.137Z,33.10
2018-08-23T04:53:05.375Z,33.27
2018-08-23T04:55:34.594Z,33.87
2018-08-23T04:58:04.784Z,32.77
2018-08-23T05:00:34.442Z,33.73
2018-08-23T05:03:03.990Z,34.13
2018-08-23T05:05:33.696Z,33.53
2018-08-23T05:08:03.176Z,33.97
2018-08-23T05:10:32.635Z,33.57
2018-08-23T05:13:01.952Z,32.50
2018-08-23T05:15:31.444Z,36.33
2018-08-23T05:18:00.967Z,34.10
2018-08-23T05:20:30.554Z,36.07
2018-08-23T05:23:03.494Z,37.03
2018-08-23T05:25:32.957Z,49.20
2018-08-23T05:28:20.694Z,42.00
2018-08-23T05:30:50.723Z,43.23
2018-08-23T05:33:21.515Z,42.90
2018-08-23T05:35:50.890Z,41.37
2018-08-23T05:38:21.102Z,38.47
2018-08-23T05:40:55.459Z,37.70
2018-08-23T05:43:25.891Z,34.47
2018-08-23T05:45:57.309Z,34.60
2018-08-23T05:48:29.656Z,32.93
2018-08-23T05:51:08.406Z,34.70
2018-08-23T05:53:50.739Z,33.90
2018-08-23T05:56:20.599Z,31.87
2018-08-23T05:58:49.999Z,34.97
2018-08-23T06:01:19.488Z,35.70
2018-08-23T06:03:49.182Z,34.97
2018-08-23T06:06:18.678Z,36.83
2018-08-23T06:08:50.336Z,36.47
2018-08-23T06:11:19.788Z,37.90
2018-08-23T06:13:49.290Z,38.13
2018-08-23T06:16:18.554Z,36.90
2018-08-23T06:18:48.085Z,40.07
2018-08-23T06:21:17.547Z,39.43
2018-08-23T06:23:55.120Z,38.87
2018-08-23T06:26:37.522Z,36.93
2018-08-23T06:29:07.226Z,42.17
2018-08-23T06:31:43.774Z,41.23
2018-08-23T06:34:13.141Z,41.20
2018-08-23T06:36:46.685Z,39.83
2018-08-23T06:39:16.074Z,43.63
2018-08-23T06:41:45.609Z,42.00
2018-08-23T06:44:15.074Z,38.53
2018-08-23T06:46:45.299Z,40.57
2018-08-23T06:49:14.519Z,41.00
2018-08-23T06:51:44.047Z,45.53
2018-08-23T06:54:13.498Z,43.03
2018-08-23T06:56:42.987Z,44.17
2018-08-23T06:59:12.694Z,51.20
2018-08-23T07:01:47.832Z,56.27
2018-08-23T07:04:17.226Z,48.30
2018-08-23T07:06:46.834Z,52.07
2018-08-23T07:09:17.659Z,47.30
2018-08-23T07:11:47.026Z,49.33
2018-08-23T07:14:17.475Z,54.00
2018-08-23T07:16:50.567Z,51.43
2018-08-23T07:19:32.338Z,50.57
2018-08-23T07:22:03.300Z,52.83
2018-08-23T07:24:43.213Z,49.83
2018-08-23T07:27:14.209Z,53.80
2018-08-23T07:29:45.639Z,52.73
2018-08-23T07:32:19.214Z,54.90
2018-08-23T07:35:01.239Z,56.97
2018-08-23T07:37:32.376Z,57.07
2018-08-23T07:40:06.811Z,71.23
2018-08-23T07:42:36.903Z,59.37
2018-08-23T07:45:07.454Z,61.77
2018-08-23T07:47:43.211Z,60.13
2018-08-23T07:50:12.650Z,63.77
2018-08-23T07:52:45.299Z,56.23
2018-08-23T07:55:14.701Z,55.57
2018-08-23T07:57:45.083Z,58.23
2018-08-23T08:00:38.102Z,61.30
2018-08-23T08:03:08.486Z,57.20
2018-08-23T08:05:40.759Z,50.93
2018-08-23T08:08:11.599Z,57.83
2018-08-23T08:10:42.972Z,60.67
2018-08-23T08:13:12.582Z,58.57
2018-08-23T08:15:42.146Z,59.33
2018-08-23T08:18:23.581Z,55.27
2018-08-23T08:21:04.018Z,56.80
2018-08-23T08:23:33.909Z,54.60
2018-08-23T08:26:03.275Z,56.27
2018-08-23T08:28:32.943Z,53.20
2018-08-23T08:31:02.946Z,55.57
2018-08-23T08:33:36.819Z,60.33
2018-08-23T08:36:07.038Z,52.70
2018-08-23T08:38:36.974Z,48.70
2018-08-23T08:41:06.345Z,47.50
2018-08-23T08:43:35.708Z,50.73
2018-08-23T08:46:05.036Z,50.90
2018-08-23T08:48:35.421Z,51.87
2018-08-23T08:51:20.944Z,52.57
2018-08-23T08:53:50.213Z,49.67
2018-08-23T08:56:59.003Z,48.63
2018-08-23T08:59:31.078Z,46.03
2018-08-23T09:02:01.138Z,43.73
2018-08-23T09:04:36.126Z,43.00
2018-08-23T09:07:05.648Z,43.93
2018-08-23T09:09:39.429Z,45.53
2018-08-23T09:12:11.108Z,47.83
2018-08-23T09:14:42.128Z,40.60
2018-08-23T09:17:27.988Z,48.30
2018-08-23T09:20:02.219Z,42.87
2018-08-23T09:22:36.658Z,43.17
2018-08-23T09:25:08.415Z,49.77
2018-08-23T09:27:37.902Z,46.50
2018-08-23T09:30:13.086Z,48.10
2018-08-23T09:32:42.613Z,41.80
2018-08-23T09:35:12.310Z,39.80
2018-08-23T09:37:42.002Z,42.40
2018-08-23T09:40:11.363Z,41.23
2018-08-23T09:42:40.643Z,37.20
2018-08-23T09:45:13.304Z,38.67
2018-08-23T09:47:43.180Z,34.60
2018-08-23T09:50:12.719Z,39.70
2018-08-23T09:52:44.227Z,32.83
2018-08-23T09:55:15.814Z,31.03
2018-08-23T09:57:45.871Z,24.40
2018-08-23T10:00:19.543Z,27.83
2018-08-23T10:04:59.931Z,18.33
2018-08-23T10:07:34.479Z,16.83
2018-08-23T10:10:09.308Z,17.73
2018-08-23T10:12:43.887Z,15.73
2018-08-23T10:15:18.665Z,15.40
2018-08-23T10:17:53.463Z,13.97
2018-08-23T10:20:28.006Z,14.27
2018-08-23T10:23:16.071Z,11.10
2018-08-23T10:25:47.659Z,11.00
2018-08-23T10:28:18.853Z,12.50
2018-08-23T10:30:48.857Z,10.90
2018-08-23T10:33:18.710Z,13.50
2018-08-23T10:35:52.399Z,14.77
2018-08-23T10:38:23.440Z,10.80
2018-08-23T10:40:54.559Z,8.43
2018-08-23T10:43:29.380Z,9.20
2018-08-23T10:46:02.931Z,8.05
2018-08-23T10:48:32.526Z,7.90
2018-08-23T10:51:02.089Z,7.30
2018-08-23T10:53:32.725Z,8.90
2018-08-23T10:56:02.023Z,10.70
2018-08-23T10:58:31.527Z,7.67
2018-08-23T11:01:01.246Z,6.27
2018-08-23T11:03:30.906Z,7.60
2018-08-23T11:06:00.467Z,6.00
2018-08-23T11:08:36.089Z,6.60
2018-08-23T11:11:10.894Z,6.80
2018-08-23T11:13:48.156Z,14.10
2018-08-23T11:16:23.791Z,6.27
2018-08-23T11:18:58.575Z,8.80
2018-08-23T11:21:27.811Z,6.33
2018-08-23T11:23:57.290Z,6.37
2018-08-23T11:26:26.788Z,5.27
2018-08-23T11:28:56.112Z,6.63
2018-08-23T11:31:29.919Z,5.00
2018-08-23T11:34:00.007Z,5.20
2018-08-23T11:36:29.507Z,4.83
2018-08-23T11:38:58.745Z,4.10
2018-08-23T11:41:28.115Z,4.17
2018-08-23T11:43:57.730Z,4.47
2018-08-23T11:46:27.813Z,4.03
2018-08-23T11:48:57.323Z,4.50
2018-08-23T11:51:26.781Z,4.83
2018-08-23T11:53:56.065Z,4.65
2018-08-23T11:56:25.370Z,5.00
2018-08-23T11:58:55.085Z,4.20
2018-08-23T12:01:24.550Z,4.95
2018-08-23T12:03:53.910Z,4.43
2018-08-23T12:06:23.410Z,4.60
2018-08-23T12:08:52.855Z,4.83
2018-08-23T12:11:22.191Z,5.33
2018-08-23T12:13:52.130Z,5.60
2018-08-23T12:16:21.819Z,4.97
2018-08-23T12:18:51.321Z,5.03
2018-08-23T12:21:21.111Z,4.97
2018-08-23T12:23:50.521Z,5.57
2018-08-23T12:26:20.165Z,4.70
2018-08-23T12:28:54.693Z,5.03
2018-08-23T12:31:24.428Z,4.30
2018-08-23T12:33:53.937Z,4.23
2018-08-23T12:36:28.828Z,4.47
2018-08-23T12:39:03.294Z,5.00
2018-08-23T12:41:38.926Z,4.00
2018-08-23T12:44:09.072Z,4.87
2018-08-23T12:46:38.447Z,4.70
2018-08-23T12:49:07.761Z,5.20
2018-08-23T12:51:37.194Z,4.27
2018-08-23T12:54:07.193Z,5.73
2018-08-23T12:56:36.619Z,5.13
2018-08-23T12:59:07.301Z,3.67
2018-08-23T13:01:37.232Z,5.50
2018-08-23T13:04:06.913Z,6.47
2018-08-23T13:06:36.458Z,26.43
2018-08-23T13:09:06.804Z,4.87
2018-08-23T13:11:36.319Z,6.70
2018-08-23T13:14:05.827Z,4.13
2018-08-23T13:16:35.291Z,3.77
2018-08-23T13:19:04.851Z,4.40
2018-08-23T13:21:34.109Z,4.80
2018-08-23T13:24:03.907Z,3.97
2018-08-23T13:26:38.941Z,3.70
2018-08-23T13:29:08.359Z,4.90
2018-08-23T13:31:37.892Z,8.10
2018-08-23T13:34:07.454Z,5.37
2018-08-23T13:36:37.373Z,4.40
2018-08-23T13:39:10.482Z,4.17
2018-08-23T13:41:40.200Z,15.07
2018-08-23T13:44:09.766Z,10.47
2018-08-23T13:46:40.050Z,5.37
2018-08-23T13:49:09.513Z,4.43
2018-08-23T13:51:39.210Z,4.73
2018-08-23T13:54:08.455Z,5.03
2018-08-23T13:56:37.854Z,5.00
2018-08-23T13:59:07.755Z,5.10
2018-08-23T14:01:37.058Z,4.23
2018-08-23T14:04:06.960Z,5.57
2018-08-23T14:06:36.478Z,6.27
2018-08-23T14:09:06.898Z,13.20
2018-08-23T14:11:36.318Z,9.00
2018-08-23T14:14:05.863Z,6.97
2018-08-23T14:16:35.350Z,7.60
2018-08-23T14:19:05.232Z,20.77
2018-08-23T14:21:34.747Z,8.87
2018-08-23T14:24:04.238Z,6.00
2018-08-23T14:26:33.780Z,6.03
2018-08-23T14:29:03.276Z,15.37
2018-08-23T14:31:32.763Z,11.70
2018-08-23T14:34:02.263Z,8.27
2018-08-23T14:36:32.250Z,11.73
2018-08-23T14:39:01.651Z,8.00
2018-08-23T14:41:31.200Z,7.00
2018-08-23T14:44:00.686Z,7.87
2018-08-23T14:46:36.096Z,12.47
2018-08-23T14:49:05.636Z,13.70
2018-08-23T14:51:34.971Z,9.53
2018-08-23T14:54:08.634Z,10.33
2018-08-23T14:56:43.285Z,9.63
2018-08-23T14:59:13.090Z,8.93
2018-08-23T15:01:42.575Z,9.13
2018-08-23T15:04:12.097Z,7.20
2018-08-23T15:06:41.588Z,8.23
2018-08-23T15:09:11.616Z,9.10
2018-08-23T15:11:40.972Z,10.30
2018-08-23T15:14:10.595Z,10.17
2018-08-23T15:16:40.077Z,10.37
2018-08-23T15:19:09.532Z,9.30
2018-08-23T15:21:39.051Z,7.90
2018-08-23T15:24:08.779Z,8.57
2018-08-23T15:26:38.398Z,8.27
2018-08-23T15:29:12.192Z,9.57
2018-08-23T15:31:43.372Z,8.97
2018-08-23T15:34:13.149Z,7.03
2018-08-23T15:36:42.522Z,8.77
2018-08-23T15:39:14.203Z,10.23
2018-08-23T15:41:43.982Z,7.30
2018-08-23T15:44:14.238Z,9.17
2018-08-23T15:46:46.547Z,8.30
2018-08-23T15:49:16.727Z,8.77
2018-08-23T15:51:46.638Z,8.93
2018-08-23T15:54:18.236Z,10.93
2018-08-23T15:56:48.119Z,10.30
2018-08-23T15:59:17.810Z,11.57
2018-08-23T16:01:47.103Z,11.20
2018-08-23T16:04:16.619Z,8.87
2018-08-23T16:06:46.085Z,10.10
2018-08-23T16:09:15.626Z,9.17
2018-08-23T16:11:45.312Z,10.37
2018-08-23T16:14:14.798Z,10.50
2018-08-23T16:16:49.615Z,11.13
2018-08-23T16:19:24.419Z,10.80
2018-08-23T16:21:55.656Z,13.50
2018-08-23T16:24:26.758Z,8.20
2018-08-23T16:27:01.264Z,9.23
2018-08-23T16:29:30.716Z,61.00
2018-08-23T16:32:00.253Z,36.30
2018-08-23T16:34:30.058Z,19.97
2018-08-23T16:36:59.265Z,9.80
2018-08-23T16:39:28.723Z,9.00
2018-08-23T16:41:58.226Z,8.03
2018-08-23T16:44:28.147Z,7.80
2018-08-23T16:46:57.650Z,8.13
2018-08-23T16:49:27.564Z,8.17
2018-08-23T16:51:57.035Z,8.50
2018-08-23T16:54:26.854Z,10.33
2018-08-23T16:56:56.051Z,11.03
2018-08-23T16:59:25.435Z,13.70
2018-08-23T17:01:54.695Z,10.13
2018-08-23T17:04:54.883Z,9.30
2018-08-23T17:07:24.582Z,8.77
2018-08-23T17:09:53.898Z,8.10
2018-08-23T17:12:23.134Z,19.77
2018-08-23T17:14:52.480Z,35.47
2018-08-23T17:17:29.124Z,8.47
2018-08-23T17:19:58.439Z,7.80
2018-08-23T17:22:29.159Z,9.37
2018-08-23T17:24:59.000Z,10.23
2018-08-23T17:27:29.622Z,7.60
2018-08-23T17:29:58.987Z,8.47
2018-08-23T17:32:28.420Z,9.17
2018-08-23T17:34:57.763Z,9.63
2018-08-23T17:37:27.246Z,10.60
2018-08-23T17:39:57.035Z,12.63
2018-08-23T17:42:31.487Z,11.67
2018-08-23T17:45:00.963Z,10.03
2018-08-23T17:47:30.985Z,10.80
2018-08-23T17:50:00.944Z,11.07
2018-08-23T17:52:30.449Z,12.07
2018-08-23T17:54:59.975Z,10.23
2018-08-23T17:57:29.844Z,11.57
2018-08-23T17:59:59.369Z,10.13
2018-08-23T18:02:28.887Z,19.50
2018-08-23T18:04:58.343Z,76.73
2018-08-23T18:07:27.889Z,28.73
2018-08-23T18:09:57.342Z,8.73
2018-08-23T18:12:26.881Z,8.53
2018-08-23T18:14:56.221Z,8.93
2018-08-23T18:17:25.681Z,8.93
2018-08-23T18:19:54.902Z,8.23
2018-08-23T18:22:24.295Z,10.23
2018-08-23T18:24:53.778Z,9.00
2018-08-23T18:27:23.291Z,9.13
2018-08-23T18:29:52.829Z,10.23
2018-08-23T18:32:22.360Z,10.87
2018-08-23T18:34:51.787Z,8.53
2018-08-23T18:37:21.383Z,8.57
2018-08-23T18:39:50.793Z,10.20
2018-08-23T18:42:20.330Z,9.43
2018-08-23T18:44:49.611Z,9.17
2018-08-23T18:47:19.122Z,9.70
2018-08-23T18:49:48.666Z,9.03
2018-08-23T18:52:17.871Z,10.03
2018-08-23T18:54:47.438Z,6.93
2018-08-23T18:57:17.139Z,6.93
2018-08-23T18:59:46.662Z,7.57
2018-08-23T19:02:16.947Z,7.00
2018-08-23T19:04:46.466Z,8.87
2018-08-23T19:07:21.286Z,12.93
2018-08-23T19:09:54.818Z,10.47
2018-08-23T19:12:24.603Z,6.80
2018-08-23T19:14:53.919Z,6.83
2018-08-23T19:17:28.599Z,10.07
2018-08-23T19:19:58.123Z,8.73
2018-08-23T19:22:27.548Z,7.90
2018-08-23T19:24:57.146Z,10.33
2018-08-23T19:27:27.225Z,7.83
2018-08-23T19:29:56.694Z,13.73
2018-08-23T19:32:26.174Z,8.43
2018-08-23T19:34:55.707Z,9.30
2018-08-23T19:37:25.662Z,8.13
2018-08-23T19:39:55.328Z,7.70
2018-08-23T19:42:25.023Z,10.80
2018-08-23T19:44:57.275Z,7.87
2018-08-23T19:47:31.926Z,13.47
2018-08-23T19:50:03.054Z,13.10
2018-08-23T19:52:33.252Z,15.37
2018-08-23T19:55:02.580Z,14.93
2018-08-23T19:57:31.868Z,13.67
2018-08-23T20:00:01.423Z,11.40
2018-08-23T20:02:30.867Z,9.30
2018-08-23T20:05:00.603Z,8.87
2018-08-23T20:07:30.147Z,7.67
2018-08-23T20:09:59.966Z,11.93
2018-08-23T20:12:29.873Z,7.33
2018-08-23T20:14:59.635Z,8.83
2018-08-23T20:17:29.188Z,10.07
2018-08-23T20:19:58.830Z,8.03
2018-08-23T20:22:28.363Z,11.57
2018-08-23T20:24:57.615Z,16.63
2018-08-23T20:27:26.978Z,10.83
2018-08-23T20:29:56.462Z,14.10
2018-08-23T20:32:26.021Z,8.97
2018-08-23T20:34:55.466Z,19.03
2018-08-23T20:37:24.985Z,15.57
2018-08-23T20:39:54.496Z,11.50
2018-08-23T20:42:23.811Z,6.97
2018-08-23T20:44:53.291Z,10.87
2018-08-23T20:47:23.282Z,8.33
2018-08-23T20:49:52.557Z,8.27
2018-08-23T20:52:22.024Z,9.27
2018-08-23T20:54:51.517Z,9.17
2018-08-23T20:57:21.002Z,7.10
2018-08-23T20:59:50.232Z,6.73
2018-08-23T21:02:20.517Z,7.73
2018-08-23T21:04:50.168Z,8.03
2018-08-23T21:07:19.666Z,7.30
2018-08-23T21:09:49.644Z,5.30
2018-08-23T21:12:18.912Z,8.97
2018-08-23T21:14:48.636Z,6.57
2018-08-23T21:17:18.070Z,6.67
2018-08-23T21:19:47.403Z,7.60
2018-08-23T21:22:17.071Z,5.83
2018-08-23T21:24:46.418Z,7.30
2018-08-23T21:27:15.936Z,5.00
2018-08-23T21:29:45.396Z,6.13
2018-08-23T21:32:14.940Z,5.83
2018-08-23T21:34:44.405Z,5.03
2018-08-23T21:37:14.394Z,5.63
2018-08-23T21:39:43.827Z,12.23
2018-08-23T21:42:13.347Z,10.67
2018-08-23T21:44:42.839Z,7.60
2018-08-23T21:47:12.342Z,6.47
2018-08-23T21:49:41.862Z,6.47
2018-08-23T21:52:11.365Z,5.77
2018-08-23T21:54:40.866Z,9.17
2018-08-23T21:57:10.175Z,9.40
2018-08-23T21:59:39.652Z,5.93
2018-08-23T22:02:13.943Z,8.47
2018-08-23T22:04:48.471Z,6.20
2018-08-23T22:07:17.899Z,5.10
2018-08-23T22:09:52.898Z,4.20
2018-08-23T22:12:24.116Z,5.00
2018-08-23T22:14:54.762Z,4.50
2018-08-23T22:17:24.690Z,6.13
2018-08-23T22:19:54.346Z,8.40
2018-08-23T22:22:23.910Z,4.80
2018-08-23T22:24:53.611Z,7.27
2018-08-23T22:27:23.175Z,4.50
2018-08-23T22:29:52.870Z,4.67
2018-08-23T22:32:22.278Z,6.93
2018-08-23T22:34:51.955Z,4.37
2018-08-23T22:37:21.474Z,4.57
2018-08-23T22:39:50.787Z,4.57
2018-08-23T22:42:20.327Z,4.73
2018-08-23T22:44:49.812Z,4.03
2018-08-23T22:47:19.314Z,4.70
2018-08-23T22:49:48.605Z,10.60
2018-08-23T22:52:17.798Z,11.20
2018-08-23T22:54:47.391Z,5.20
2018-08-23T22:57:16.902Z,6.47
2018-08-23T22:59:46.430Z,8.60
2018-08-23T23:02:21.083Z,10.03
2018-08-23T23:04:50.344Z,5.20
2018-08-23T23:07:19.821Z,4.00
2018-08-23T23:09:49.171Z,4.57
2018-08-23T23:12:18.666Z,6.93
2018-08-23T23:14:48.157Z,4.37
2018-08-23T23:17:17.643Z,5.33
2018-08-23T23:19:47.010Z,5.40
2018-08-23T23:22:16.987Z,5.77
2018-08-23T23:24:51.550Z,5.43
2018-08-23T23:27:21.008Z,8.90
2018-08-23T23:29:50.489Z,5.93
2018-08-23T23:32:20.002Z,6.23
2018-08-23T23:34:49.503Z,4.33
2018-08-23T23:37:18.820Z,4.97
2018-08-23T23:39:48.295Z,5.20
2018-08-23T23:42:17.638Z,5.53
2018-08-23T23:44:47.734Z,4.13
2018-08-23T23:47:17.242Z,5.03
2018-08-23T23:49:46.783Z,5.00
2018-08-23T23:52:16.272Z,4.93
2018-08-23T23:54:45.759Z,5.23
2018-08-23T23:57:15.748Z,3.60
2018-08-23T23:59:45.193Z,4.90
